Time;durP1;ratioP1;P1;durP2;ratioP2;P2;SDS_P1;SDS_P2;PMS_P1;PMS_P2;Temp;Humidity;BMP_temperature;BMP_pressure;BME280_temperature;BME280_humidity;BME280_pressure;Samples;Min_cycle;Max_cycle;Signal;HPM_P1;HPM_P2
2022/06/23 00:01:00;;;;;;;12.13;11.00;;;13.90;99.90;;;;;;4652177;30;20451;-88
2022/06/23 00:03:30;;;;;;;12.32;11.32;;;13.90;99.90;;;;;;4652192;30;20042;-88
2022/06/23 00:05:59;;;;;;;13.40;12.13;;;13.80;99.90;;;;;;4651114;30;20511;-87
2022/06/23 00:08:25;;;;;;;12.82;11.63;;;13.80;99.90;;;;;;4651540;30;20090;-88
2022/06/23 00:11:00;;;;;;;12.60;11.40;;;13.70;99.90;;;;;;4651778;30;20137;-88
2022/06/23 00:13:35;;;;;;;12.70;11.50;;;13.70;99.90;;;;;;4651367;30;20053;-88
2022/06/23 00:16:05;;;;;;;13.27;12.15;;;13.70;99.90;;;;;;4651314;30;20047;-87
2022/06/23 00:18:36;;;;;;;12.85;11.65;;;13.70;99.90;;;;;;4665255;30;20427;-88
2022/06/23 00:21:08;;;;;;;11.98;10.98;;;13.70;99.90;;;;;;4651907;30;20039;-88
2022/06/23 00:23:41;;;;;;;12.60;11.57;;;13.70;99.90;;;;;;4651340;30;20054;-88
2022/06/23 00:26:21;;;;;;;12.90;11.73;;;13.60;99.90;;;;;;4675189;30;20529;-88
2022/06/23 00:28:57;;;;;;;12.90;11.70;;;13.60;99.90;;;;;;4651810;30;20414;-88
2022/06/23 00:31:25;;;;;;;12.18;11.07;;;13.60;99.90;;;;;;4651262;30;20092;-88
2022/06/23 00:33:51;;;;;;;12.27;11.23;;;13.50;99.90;;;;;;4665303;30;20437;-89
2022/06/23 00:36:34;;;;;;;12.90;11.60;;;13.50;99.90;;;;;;4648069;30;20060;-88
2022/06/23 00:39:01;;;;;;;12.65;11.55;;;13.50;99.90;;;;;;4661518;30;20073;-88
2022/06/23 01:05:31;;;;;;;13.15;11.77;;;13.30;99.90;;;;;;5553553;24;20109;-89
2022/06/23 01:08:28;;;;;;;13.90;12.45;;;13.30;99.90;;;;;;4667496;30;20505;-89
2022/06/23 01:11:04;;;;;;;13.00;11.85;;;13.20;99.90;;;;;;4667756;30;20414;-88
2022/06/23 01:13:45;;;;;;;12.88;11.63;;;13.20;99.90;;;;;;4667022;30;20061;-88
2022/06/23 01:16:21;;;;;;;13.43;12.32;;;13.30;99.90;;;;;;4681177;30;20410;-89
2022/06/23 01:18:53;;;;;;;14.38;13.18;;;13.20;99.90;;;;;;4681936;30;20106;-89
2022/06/23 01:21:45;;;;;;;14.10;12.73;;;13.20;99.90;;;;;;4667007;30;20057;-89
2022/06/23 01:24:23;;;;;;;14.13;12.93;;;13.20;99.90;;;;;;4673698;30;20309;-88
2022/06/23 01:27:26;;;;;;;15.43;14.02;;;13.10;99.90;;;;;;4674740;30;20049;-89
2022/06/23 01:30:04;;;;;;;15.60;14.10;;;13.10;99.90;;;;;;4666502;30;20050;-88
2022/06/23 01:32:43;;;;;;;15.07;13.88;;;13.10;99.90;;;;;;4681065;30;20060;-88
2022/06/23 01:35:15;;;;;;;15.10;13.70;;;13.10;99.90;;;;;;4680938;30;20046;-88
2022/06/23 01:37:58;;;;;;;15.93;14.50;;;13.00;99.90;;;;;;4680743;30;20060;-89
2022/06/23 01:40:31;;;;;;;15.90;14.57;;;13.10;99.90;;;;;;4681740;30;20076;-88
2022/06/23 01:43:11;;;;;;;15.65;14.35;;;13.00;99.90;;;;;;4680525;30;20042;-88
2022/06/23 01:45:55;;;;;;;16.30;14.80;;;13.00;99.90;;;;;;4680105;30;20590;-88
2022/06/23 01:48:52;;;;;;;15.70;14.40;;;13.00;99.90;;;;;;4681002;30;20053;-89
2022/06/23 01:51:47;;;;;;;16.27;14.98;;;12.90;99.90;;;;;;4681427;30;20057;-88
2022/06/23 01:54:19;;;;;;;16.15;14.57;;;12.90;99.90;;;;;;4681459;30;20061;-89
2022/06/23 01:57:03;;;;;;;16.83;15.13;;;12.90;99.90;;;;;;4665989;30;20076;-88
2022/06/23 01:59:45;;;;;;;16.00;14.55;;;12.90;99.90;;;;;;4679127;30;20042;-89
2022/06/23 02:02:21;;;;;;;15.93;14.38;;;12.90;99.90;;;;;;4681072;30;20141;-88
2022/06/23 02:05:23;;;;;;;16.58;15.02;;;12.80;99.90;;;;;;4680597;30;20045;-89
2022/06/23 02:08:08;;;;;;;16.33;14.73;;;12.80;99.90;;;;;;4664471;30;20222;-89
2022/06/23 02:10:39;;;;;;;16.58;15.07;;;12.80;99.90;;;;;;4666778;30;20109;-88
2022/06/23 02:13:22;;;;;;;17.02;15.48;;;12.70;99.90;;;;;;4666623;30;20046;-88
2022/06/23 02:16:23;;;;;;;17.77;16.17;;;12.70;99.90;;;;;;4680139;30;20050;-88
2022/06/23 02:18:59;;;;;;;17.67;16.02;;;12.70;99.90;;;;;;4653109;30;20058;-88
2022/06/23 02:21:35;;;;;;;17.73;16.02;;;12.70;99.90;;;;;;4680732;30;20426;-89
2022/06/23 02:24:21;;;;;;;18.55;16.92;;;12.70;99.90;;;;;;4679967;30;20568;-88
2022/06/23 02:27:01;;;;;;;18.23;16.42;;;12.70;99.90;;;;;;4673318;30;20486;-88
2022/06/23 02:29:43;;;;;;;19.35;17.52;;;12.60;99.90;;;;;;4679870;30;20129;-88
2022/06/23 02:32:38;;;;;;;18.40;16.75;;;12.60;99.90;;;;;;4680098;30;20139;-88
2022/06/23 02:35:24;;;;;;;18.35;16.75;;;12.50;99.90;;;;;;4665865;30;20383;-88
2022/06/23 02:37:58;;;;;;;19.27;17.48;;;12.50;99.90;;;;;;4679114;30;20038;-88
2022/06/23 02:40:47;;;;;;;20.10;18.17;;;12.50;99.90;;;;;;4680432;30;20042;-87
2022/06/23 02:43:26;;;;;;;19.92;18.10;;;12.50;99.90;;;;;;4680665;30;20052;-88
2022/06/23 02:46:22;;;;;;;20.15;18.25;;;12.40;99.90;;;;;;4680927;30;20050;-88
2022/06/23 02:49:14;;;;;;;18.65;16.92;;;12.50;99.90;;;;;;4673749;30;20046;-88
2022/06/23 02:51:50;;;;;;;19.55;17.70;;;12.40;99.90;;;;;;4679364;30;20296;-88
2022/06/23 02:54:18;;;;;;;19.00;16.98;;;12.40;99.90;;;;;;4679822;30;20046;-88
2022/06/23 02:57:07;;;;;;;19.13;17.23;;;12.40;99.90;;;;;;4672521;30;20050;-88
2022/06/23 02:59:43;;;;;;;19.20;17.50;;;12.30;99.90;;;;;;4680497;30;20050;-88
2022/06/23 03:02:12;;;;;;;19.17;17.58;;;12.30;99.90;;;;;;4680487;30;20092;-89
2022/06/23 03:04:50;;;;;;;19.33;17.63;;;12.30;99.90;;;;;;4665044;30;20046;-89
2022/06/23 03:07:21;;;;;;;19.35;17.67;;;12.20;99.90;;;;;;4665616;30;20053;-88
2022/06/23 03:09:58;;;;;;;20.73;18.58;;;12.30;99.90;;;;;;4666186;30;20422;-88
2022/06/23 03:12:36;;;;;;;20.30;18.33;;;12.20;99.90;;;;;;4680403;30;20046;-88
2022/06/23 03:15:16;;;;;;;21.90;19.60;;;12.20;99.90;;;;;;4679879;30;20136;-88
2022/06/23 03:18:06;;;;;;;21.35;19.17;;;12.20;99.90;;;;;;4679705;30;20081;-89
2022/06/23 03:20:44;;;;;;;20.52;18.55;;;12.20;99.90;;;;;;4680021;30;20402;-88
2022/06/23 03:23:31;;;;;;;21.98;19.77;;;12.20;99.90;;;;;;4680253;30;20045;-89
2022/06/23 03:26:24;;;;;;;20.65;18.73;;;12.10;99.90;;;;;;4665692;30;20192;-88
2022/06/23 03:29:05;;;;;;;21.17;19.25;;;12.10;99.90;;;;;;4670822;30;20630;-88
2022/06/23 03:31:43;;;;;;;20.48;18.60;;;12.10;99.90;;;;;;4663816;30;20561;-88
2022/06/23 03:34:26;;;;;;;21.20;19.23;;;12.10;99.90;;;;;;4678948;30;20042;-88
2022/06/23 03:36:57;;;;;;;20.70;18.55;;;12.10;99.90;;;;;;4659084;30;20625;-88
2022/06/23 03:42:38;;;;;;;22.40;20.40;;;12.10;99.90;;;;;;4680056;30;20049;-88
2022/06/23 03:45:17;;;;;;;21.70;19.83;;;12.10;99.90;;;;;;4680334;30;20038;-88
2022/06/23 03:47:52;;;;;;;21.55;19.30;;;12.10;99.90;;;;;;4682600;30;20050;-87
2022/06/23 03:50:23;;;;;;;20.00;17.98;;;12.10;99.90;;;;;;4683360;30;20128;-88
2022/06/23 03:52:54;;;;;;;20.00;17.80;;;12.10;99.90;;;;;;4683690;30;20129;-88
2022/06/23 03:55:27;;;;;;;20.65;18.60;;;12.10;99.90;;;;;;4683163;30;20085;-88
2022/06/23 03:57:58;;;;;;;19.05;17.15;;;12.10;99.90;;;;;;4681839;30;20057;-88
2022/06/23 04:00:33;;;;;;;19.80;17.90;;;12.10;99.90;;;;;;4682701;30;20046;-87
2022/06/23 04:03:11;;;;;;;20.58;18.23;;;12.20;99.90;;;;;;4683245;30;20042;-88
2022/06/23 04:05:55;;;;;;;19.42;17.42;;;12.20;99.90;;;;;;4682772;30;20133;-87
2022/06/23 04:08:28;;;;;;;18.10;16.17;;;12.30;99.90;;;;;;4680123;30;20116;-87
2022/06/23 04:10:58;;;;;;;19.45;17.63;;;12.30;99.90;;;;;;4682934;30;20557;-88
2022/06/23 04:13:24;;;;;;;20.35;18.15;;;12.30;99.90;;;;;;4682341;30;20053;-87
2022/06/23 04:15:52;;;;;;;18.67;16.50;;;12.30;99.90;;;;;;4667763;30;20045;-88
2022/06/23 04:18:24;;;;;;;19.05;16.85;;;12.40;99.90;;;;;;4682695;30;20418;-87
2022/06/23 04:20:54;;;;;;;19.25;17.20;;;12.40;99.90;;;;;;4667130;30;20049;-88
2022/06/23 04:23:42;;;;;;;19.92;17.10;;;12.40;99.90;;;;;;4679525;30;20046;-88
2022/06/23 04:26:15;;;;;;;18.02;16.40;;;12.50;99.90;;;;;;4682068;30;20140;-88
2022/06/23 04:28:42;;;;;;;17.73;15.95;;;12.80;99.90;;;;;;4695808;30;20053;-87
2022/06/23 04:31:13;;;;;;;16.98;15.23;;;12.90;99.90;;;;;;4681709;30;20053;-87
2022/06/23 04:33:40;;;;;;;17.00;15.10;;;13.20;99.90;;;;;;4681537;30;20045;-88
2022/06/23 04:36:15;;;;;;;17.45;15.55;;;13.40;99.90;;;;;;4682614;30;20108;-88
2022/06/23 04:38:54;;;;;;;15.30;13.80;;;13.70;99.90;;;;;;4681802;30;20050;-87
2022/06/23 04:41:29;;;;;;;16.13;14.55;;;14.00;99.90;;;;;;4681952;30;20092;-88
2022/06/23 04:44:02;;;;;;;15.85;14.00;;;14.20;99.90;;;;;;4682035;30;20410;-89
2022/06/23 04:46:40;;;;;;;14.77;13.32;;;14.40;99.90;;;;;;4668956;30;20125;-88
2022/06/23 04:49:18;;;;;;;15.13;13.65;;;14.60;99.90;;;;;;4682257;30;20382;-87
2022/06/23 04:51:56;;;;;;;14.45;13.07;;;14.80;99.90;;;;;;4681656;30;20052;-89
2022/06/23 04:54:29;;;;;;;14.65;13.25;;;15.00;99.90;;;;;;4681610;30;20045;-88
2022/06/23 04:57:13;;;;;;;13.07;11.98;;;15.20;99.90;;;;;;4689250;30;20045;-88
2022/06/23 04:59:55;;;;;;;13.25;12.05;;;15.40;99.90;;;;;;4668114;30;20046;-88
2022/06/23 05:02:51;;;;;;;13.52;12.32;;;15.60;99.90;;;;;;4667592;30;20057;-88
2022/06/23 05:05:30;;;;;;;12.57;11.38;;;15.90;99.90;;;;;;4681112;30;20498;-90
2022/06/23 05:08:13;;;;;;;13.00;11.80;;;16.20;99.90;;;;;;4696172;30;20052;-89
2022/06/23 05:10:46;;;;;;;12.70;11.50;;;16.50;99.90;;;;;;4682478;30;20050;-85
2022/06/23 05:13:17;;;;;;;12.77;11.57;;;16.90;99.90;;;;;;4681858;30;20219;-85
2022/06/23 05:15:49;;;;;;;13.68;12.40;;;17.20;99.90;;;;;;4671631;30;20046;-86
2022/06/23 05:18:25;;;;;;;13.10;11.93;;;17.40;99.90;;;;;;4679610;30;20519;-87
2022/06/23 05:20:54;;;;;;;12.82;11.73;;;17.60;99.90;;;;;;4682034;30;20525;-86
2022/06/23 05:23:28;;;;;;;13.05;11.75;;;17.80;99.90;;;;;;4667575;30;20046;-89
2022/06/23 05:26:02;;;;;;;12.85;11.65;;;17.90;99.90;;;;;;4680707;30;20049;-88
2022/06/23 05:28:32;;;;;;;12.57;11.57;;;18.00;99.90;;;;;;4680832;30;20073;-87
2022/06/23 05:31:03;;;;;;;12.48;11.48;;;18.00;99.90;;;;;;4681643;30;20061;-88
2022/06/23 05:33:46;;;;;;;12.90;11.70;;;18.00;99.90;;;;;;4681503;30;20533;-88
2022/06/23 05:36:27;;;;;;;11.73;10.63;;;18.10;99.90;;;;;;4666245;30;20049;-88
2022/06/23 05:39:04;;;;;;;12.68;11.48;;;18.20;99.90;;;;;;4681393;30;20050;-87
2022/06/23 05:41:42;;;;;;;12.55;11.52;;;18.30;99.90;;;;;;4681773;30;20050;-87
2022/06/23 05:44:23;;;;;;;13.30;12.00;;;18.30;99.90;;;;;;4679182;30;20057;-86
2022/06/23 05:46:51;;;;;;;12.95;11.75;;;18.40;99.90;;;;;;4667117;30;20041;-85
2022/06/23 05:49:27;;;;;;;12.75;11.65;;;18.50;99.90;;;;;;4680670;30;20490;-85
2022/06/23 05:51:59;;;;;;;13.27;11.98;;;18.60;99.90;;;;;;4680263;30;20079;-85
2022/06/23 05:54:34;;;;;;;13.30;12.00;;;18.70;99.90;;;;;;4679962;30;20041;-85
2022/06/23 05:57:18;;;;;;;13.63;12.23;;;18.80;99.90;;;;;;4675835;30;20042;-85
2022/06/23 05:59:58;;;;;;;13.38;12.13;;;18.80;99.90;;;;;;4680582;30;20414;-85
2022/06/23 06:02:39;;;;;;;12.82;11.73;;;18.80;99.90;;;;;;4681372;30;20093;-86
2022/06/23 06:05:06;;;;;;;13.13;11.98;;;18.70;99.90;;;;;;4680377;30;20458;-85
2022/06/23 06:07:40;;;;;;;13.73;12.40;;;18.50;99.90;;;;;;4679647;30;20049;-86
2022/06/23 06:10:15;;;;;;;14.30;12.90;;;18.50;99.90;;;;;;4678245;30;20106;-87
2022/06/23 06:12:42;;;;;;;13.57;12.27;;;18.40;99.90;;;;;;4680243;30;20058;-88
2022/06/23 06:15:22;;;;;;;14.05;12.65;;;18.40;99.90;;;;;;4680272;30;20132;-85
2022/06/23 06:17:52;;;;;;;13.30;12.05;;;18.40;99.90;;;;;;4679361;30;20049;-85
2022/06/23 06:20:23;;;;;;;14.18;12.88;;;18.40;99.90;;;;;;4667493;30;20038;-84
2022/06/23 06:23:15;;;;;;;14.55;12.27;;;18.30;99.90;;;;;;4680328;30;20112;-86
2022/06/23 06:25:47;;;;;;;14.48;13.05;;;18.30;99.90;;;;;;4680221;30;20054;-88
2022/06/23 06:28:24;;;;;;;13.07;11.73;;;18.30;99.90;;;;;;4686818;30;20569;-86
2022/06/23 06:31:11;;;;;;;15.30;12.82;;;18.30;99.90;;;;;;4679912;30;20053;-86
2022/06/23 06:33:48;;;;;;;14.13;12.00;;;18.30;99.90;;;;;;4680555;30;20156;-85
2022/06/23 06:36:38;;;;;;;13.68;12.38;;;18.30;99.90;;;;;;4679728;30;20110;-85
2022/06/23 06:39:06;;;;;;;12.98;11.77;;;18.40;99.90;;;;;;4668549;30;20050;-85
2022/06/23 06:41:32;;;;;;;13.40;11.82;;;18.40;99.90;;;;;;4680661;30;20048;-85
2022/06/23 06:43:59;;;;;;;13.43;12.13;;;18.40;99.90;;;;;;4680487;30;20132;-84
2022/06/23 06:46:25;;;;;;;13.55;12.15;;;18.60;99.90;;;;;;4680992;30;20133;-85
2022/06/23 06:48:51;;;;;;;13.18;11.85;;;18.60;99.90;;;;;;4680330;30;20054;-85
2022/06/23 06:51:21;;;;;;;13.40;12.10;;;18.70;99.90;;;;;;4680205;30;20081;-87
2022/06/23 06:53:53;;;;;;;12.52;11.27;;;18.80;99.90;;;;;;4680952;30;20082;-85
2022/06/23 06:56:33;;;;;;;13.10;11.48;;;18.80;99.90;;;;;;4666457;30;20136;-86
2022/06/23 06:59:11;;;;;;;13.00;11.70;;;18.90;99.90;;;;;;4666237;30;20042;-85
2022/06/23 07:01:39;;;;;;;11.88;10.88;;;19.00;99.90;;;;;;4665604;30;20038;-85
2022/06/23 07:04:11;;;;;;;12.77;11.50;;;19.10;99.90;;;;;;4680282;30;20383;-85
2022/06/23 07:06:45;;;;;;;12.50;11.35;;;19.20;99.90;;;;;;4679874;30;20078;-85
2022/06/23 07:09:28;;;;;;;12.52;11.30;;;19.30;99.90;;;;;;4679689;30;20054;-86
2022/06/23 07:12:03;;;;;;;11.80;10.80;;;19.40;99.90;;;;;;4680305;30;20387;-85
2022/06/23 07:14:37;;;;;;;12.48;11.20;;;19.50;99.90;;;;;;4680379;30;20454;-85
2022/06/23 07:17:12;;;;;;;;;;;19.70;99.90;;;;;;4680556;30;20046;-86
2022/06/23 07:30:41;;;;;;;10.98;10.05;;;20.20;99.90;;;;;;4668354;30;20078;-83
2022/06/23 07:34:13;;;;;;;;;;;;;;;;;;;;;
2022/06/23 08:18:43;;;;;;;9.35;8.45;;;28.20;75.60;;;;;;4609978;31;20060;-82
2022/06/23 08:59:00;;;;;;;;;;;;;;;;;;;;;
2022/06/23 09:02:36;;;;;;;10.77;9.77;;;31.80;57.40;;;;;;4641745;30;20055;-82
2022/06/23 09:17:20;;;;;;;;;;;;;;;;;;;;;
2022/06/23 09:24:20;;;;;;;12.93;12.02;;;32.80;56.00;;;;;;4530877;31;20050;-81
2022/06/23 09:27:47;;;;;;;11.20;10.40;;;33.20;53.70;;;;;;4505300;31;20072;-81
2022/06/23 09:41:49;;;;;;;11.60;10.82;;;33.00;52.30;;;;;;4771456;24;20537;-82
2022/06/23 09:45:20;;;;;;;11.30;10.27;;;33.30;51.10;;;;;;4639921;30;20066;-81
2022/06/23 09:52:03;;;;;;;;;;;;;;;;;;;;;
2022/06/23 09:55:24;;;;;;;12.00;10.77;;;33.10;50.30;;;;;;4597821;31;20060;-81
2022/06/23 09:59:02;;;;;;;9.70;8.98;;;33.30;51.80;;;;;;4551511;31;20566;-81
2022/06/23 12:57:12;;;;;;;;;;;;;;;;;;;;;
2022/06/23 13:07:40;;;;;;;10.55;9.85;;;36.30;41.70;;;;;;4672232;30;20511;-82
2022/06/23 13:10:59;;;;;;;10.67;9.90;;;36.30;42.40;;;;;;4828329;25;20085;-83
2022/06/23 13:17:57;;;;;;;;;;;;;;;;;;;;;
2022/06/23 13:21:35;;;;;;;;;;;;;;;;;;;;;
2022/06/23 13:24:27;;;;;;;;;;;36.60;40.40;;;;;;4669188;30;20043;-82
2022/06/23 13:31:41;;;;;;;9.68;9.02;;;36.40;41.70;;;;;;4677507;30;20042;-82
2022/06/23 13:35:12;;;;;;;;;;;;;;;;;;;;;
2022/06/23 13:39:05;;;;;;;10.10;9.20;;;36.40;42.20;;;;;;4659860;30;20542;-83
2022/06/23 13:52:48;;;;;;;;;;;;;;;;;;;;;
2022/06/23 13:55:44;;;;;;;9.95;9.30;;;36.80;41.30;;;;;;4583527;31;20068;-82
2022/06/23 13:59:10;;;;;;;9.75;9.15;;;36.80;42.50;;;;;;4613037;30;20069;-82
2022/06/23 14:02:53;;;;;;;9.30;8.52;;;36.70;43.60;;;;;;4662048;30;20412;-82
2022/06/23 14:11:51;;;;;;;10.38;9.68;;;36.70;43.60;;;;;;4668704;30;20086;-82
2022/06/23 14:19:43;;;;;;;;;;;;;;;;;;;;;
2022/06/23 14:26:29;;;;;;;10.73;10.00;;;36.50;43.00;;;;;;4643862;30;20043;-83
2022/06/23 14:29:52;;;;;;;11.85;11.13;;;36.40;44.00;;;;;;4646417;30;20055;-83
2022/06/23 14:33:41;;;;;;;10.60;9.80;;;36.30;44.60;;;;;;4613878;31;20532;-82
2022/06/23 14:36:49;;;;;;;10.77;10.07;;;36.20;45.30;;;;;;4641224;30;20137;-81
2022/06/23 14:39:47;;;;;;;10.00;9.15;;;36.40;44.10;;;;;;4653994;25;20065;-82
2022/06/23 14:46:24;;;;;;;11.68;10.82;;;36.40;43.40;;;;;;4680980;30;20535;-82
2022/06/23 15:01:45;;;;;;;;;;;;;;;;;;;;;
2022/06/23 15:24:15;;;;;;;;;;;;;;;;;;;;;
2022/06/23 15:31:44;;;;;;;;;;;;;;;;;;;;;
2022/06/23 15:35:24;;;;;;;9.57;8.73;;;32.20;49.70;;;;;;4586155;31;20083;-82
2022/06/23 15:39:11;;;;;;;;;;;;;;;;;;;;;
2022/06/23 15:42:58;;;;;;;9.20;8.60;;;31.80;48.90;;;;;;4650708;30;20491;-81
2022/06/23 15:46:17;;;;;;;10.13;9.35;;;31.60;50.20;;;;;;4636476;31;20063;-83
2022/06/23 15:50:03;;;;;;;9.45;8.75;;;31.50;49.40;;;;;;4638803;30;20065;-83
2022/06/23 15:57:40;;;;;;;10.32;9.38;;;31.30;49.90;;;;;;4654234;30;20038;-81
2022/06/23 16:01:47;;;;;;;10.02;9.20;;;31.30;50.80;;;;;;4637372;31;20086;-79
2022/06/23 16:14:14;;;;;;;8.30;7.70;;;31.20;49.50;;;;;;4506438;31;20116;-79
2022/06/23 16:20:23;;;;;;;8.40;7.80;;;31.00;50.00;;;;;;4632710;24;20080;-80
2022/06/23 16:23:58;;;;;;;9.20;8.30;;;31.00;50.10;;;;;;4668004;30;20062;-80
2022/06/23 16:35:00;;;;;;;9.10;8.35;;;30.60;53.00;;;;;;4599788;31;20052;-83
2022/06/23 16:38:41;;;;;;;;;;;;;;;;;;;;;
2022/06/23 16:45:40;;;;;;;9.82;9.00;;;29.90;53.80;;;;;;4566789;31;20064;-82
2022/06/23 16:48:42;;;;;;;9.35;8.57;;;29.60;55.20;;;;;;4663141;30;20057;-82
2022/06/23 16:55:42;;;;;;;;;;;;;;;;;;;;;
2022/06/23 16:59:10;;;;;;;11.02;8.35;;;29.00;55.50;;;;;;4678028;30;20090;-83
2022/06/23 17:06:02;;;;;;;;;;;28.90;55.80;;;;;;4634680;31;20083;-84
2022/06/23 17:13:04;;;;;;;9.57;8.73;;;28.90;56.30;;;;;;4581253;31;20048;-83
2022/06/23 17:16:23;;;;;;;9.45;8.65;;;28.80;57.60;;;;;;4557645;31;20417;-83
2022/06/23 17:20:06;;;;;;;10.10;9.30;;;28.70;58.20;;;;;;4613195;31;20051;-84
2022/06/23 17:36:23;;;;;;;9.13;8.43;;;27.90;61.70;;;;;;5576184;25;20044;-83
2022/06/23 17:46:20;;;;;;;10.50;9.40;;;27.60;60.60;;;;;;4657847;30;20284;-81
2022/06/23 17:49:42;;;;;;;10.10;9.40;;;27.60;62.10;;;;;;4639802;30;20046;-82
2022/06/23 18:40:25;;;;;;;;;;;;;;;;;;;;;
2022/06/23 18:43:41;;;;;;;9.10;8.50;;;27.30;69.80;;;;;;4660004;30;20058;-79
2022/06/23 18:53:39;;;;;;;9.85;9.25;;;27.00;67.80;;;;;;4677490;30;20429;-86
2022/06/23 18:56:09;;;;;;;11.00;10.20;;;26.80;67.50;;;;;;4672146;30;20116;-85
2022/06/23 18:58:55;;;;;;;12.05;11.02;;;26.70;68.60;;;;;;4680195;30;20073;-85
2022/06/23 19:01:37;;;;;;;12.15;11.43;;;26.60;70.30;;;;;;4662157;30;20053;-85
2022/06/23 19:04:25;;;;;;;13.43;12.30;;;26.50;72.00;;;;;;4663460;30;20046;-85
2022/06/23 19:06:54;;;;;;;12.68;11.75;;;26.50;73.40;;;;;;4660422;30;20050;-85
2022/06/23 19:09:33;;;;;;;11.73;10.93;;;26.40;73.90;;;;;;4658830;30;20069;-85
2022/06/23 19:12:21;;;;;;;13.13;12.23;;;26.30;74.20;;;;;;4657713;30;20133;-85
2022/06/23 19:15:05;;;;;;;13.27;12.30;;;26.20;74.70;;;;;;4648610;30;20487;-85
2022/06/23 19:17:49;;;;;;;11.68;10.73;;;26.10;75.40;;;;;;4665828;30;20042;-85
2022/06/23 19:20:39;;;;;;;14.43;13.20;;;25.90;75.50;;;;;;4663366;30;20054;-85
2022/06/23 19:23:49;;;;;;;14.13;13.15;;;25.80;77.00;;;;;;4662417;30;20042;-85
2022/06/23 19:26:27;;;;;;;16.00;14.98;;;25.60;80.80;;;;;;4665922;30;20049;-85
2022/06/23 19:29:24;;;;;;;11.85;11.05;;;25.50;83.50;;;;;;4670908;30;20051;-83
2022/06/23 19:32:19;;;;;;;13.02;11.90;;;25.30;82.60;;;;;;4662650;30;20294;-85
2022/06/23 19:34:50;;;;;;;12.73;11.90;;;25.10;81.80;;;;;;4666219;30;20038;-85
2022/06/23 19:37:43;;;;;;;12.48;11.63;;;24.90;81.90;;;;;;4665111;30;20513;-85
2022/06/23 19:40:39;;;;;;;14.45;13.15;;;24.80;81.90;;;;;;4646202;30;20052;-84
2022/06/23 19:43:50;;;;;;;13.98;12.98;;;24.70;83.10;;;;;;4665448;30;20046;-84
2022/06/23 19:46:20;;;;;;;13.98;12.77;;;24.50;84.60;;;;;;4632475;30;20051;-85
2022/06/23 19:48:49;;;;;;;13.43;12.35;;;24.30;85.50;;;;;;4636357;30;20054;-85
2022/06/23 19:52:08;;;;;;;14.23;13.32;;;24.30;86.10;;;;;;4665399;30;20057;-85
2022/06/23 19:54:42;;;;;;;;;;;24.20;88.20;;;;;;4656679;30;20066;-85
2022/06/23 19:57:42;;;;;;;12.45;11.52;;;24.10;90.00;;;;;;4662898;30;19935;-84
2022/06/23 20:00:19;;;;;;;11.82;10.80;;;24.00;88.10;;;;;;4659546;30;20055;-84
2022/06/23 20:02:53;;;;;;;11.93;10.90;;;24.00;88.40;;;;;;4665524;30;20066;-85
2022/06/23 20:05:46;;;;;;;11.73;10.73;;;24.10;88.20;;;;;;4663655;30;20687;-84
2022/06/23 20:08:43;;;;;;;11.70;10.75;;;24.10;87.60;;;;;;4676588;30;20050;-84
2022/06/23 20:11:31;;;;;;;11.82;10.75;;;24.20;86.00;;;;;;4648956;30;20059;-84
2022/06/23 20:14:16;;;;;;;12.77;11.98;;;24.30;84.80;;;;;;4664768;30;20054;-84
2022/06/23 20:16:50;;;;;;;12.90;11.77;;;24.30;86.10;;;;;;4651594;30;20141;-84
2022/06/23 20:19:27;;;;;;;13.57;12.55;;;24.20;86.30;;;;;;4651397;30;20039;-84
2022/06/23 20:22:01;;;;;;;14.35;13.25;;;24.10;87.70;;;;;;4649990;30;20058;-84
2022/06/23 20:24:53;;;;;;;12.98;11.73;;;24.00;90.00;;;;;;4665482;30;20507;-83
2022/06/23 20:27:41;;;;;;;11.88;10.75;;;23.80;89.20;;;;;;4650505;30;20057;-83
2022/06/23 20:30:41;;;;;;;11.57;10.77;;;23.80;88.50;;;;;;4649033;30;20049;-84
2022/06/23 20:33:32;;;;;;;12.35;11.30;;;23.70;88.40;;;;;;4640631;30;20100;-83
2022/06/23 20:36:27;;;;;;;11.05;10.10;;;23.60;88.80;;;;;;4636563;30;20531;-83
2022/06/23 20:39:23;;;;;;;10.25;9.35;;;23.50;86.60;;;;;;4664442;30;20948;-83
2022/06/23 20:41:58;;;;;;;10.50;9.68;;;23.40;84.20;;;;;;4657753;30;20045;-83
2022/06/23 20:44:45;;;;;;;10.15;9.32;;;23.50;82.90;;;;;;4650248;30;20053;-82
2022/06/23 20:47:26;;;;;;;10.05;9.18;;;23.70;81.70;;;;;;4660956;30;20129;-82
2022/06/23 20:50:20;;;;;;;10.00;9.10;;;23.80;80.50;;;;;;4662348;30;20065;-83
2022/06/23 20:53:02;;;;;;;9.73;8.50;;;23.90;79.70;;;;;;4650278;30;20046;-84
2022/06/23 20:55:48;;;;;;;9.77;8.88;;;23.90;78.60;;;;;;4663366;30;20042;-85
2022/06/23 20:58:36;;;;;;;9.60;8.80;;;23.90;77.60;;;;;;4649971;30;20050;-83
2022/06/23 21:01:18;;;;;;;8.82;8.23;;;23.90;77.10;;;;;;4646373;30;20474;-84
2022/06/23 21:04:16;;;;;;;9.13;8.43;;;23.90;76.50;;;;;;4664121;30;20495;-84
2022/06/23 21:07:03;;;;;;;9.02;8.30;;;23.90;75.90;;;;;;4644263;30;20211;-83
2022/06/23 21:09:35;;;;;;;9.10;8.40;;;23.90;75.40;;;;;;4648078;30;20081;-84
2022/06/23 21:12:16;;;;;;;9.32;8.63;;;23.90;76.30;;;;;;4656757;30;20077;-84
2022/06/23 21:14:57;;;;;;;9.90;9.02;;;23.90;78.70;;;;;;4652881;30;20051;-86
2022/06/23 21:17:35;;;;;;;10.07;9.35;;;23.80;80.80;;;;;;4663096;30;20491;-84
2022/06/23 21:20:06;;;;;;;10.68;9.88;;;23.60;80.60;;;;;;4658929;30;20580;-84
2022/06/23 21:23:12;;;;;;;10.50;9.70;;;23.40;81.10;;;;;;4645640;30;20057;-84
2022/06/23 21:25:39;;;;;;;10.15;9.35;;;23.30;81.80;;;;;;4664118;30;20462;-84
2022/06/23 21:28:34;;;;;;;10.40;9.57;;;23.10;82.70;;;;;;4663520;30;20043;-84
2022/06/23 21:31:10;;;;;;;10.80;10.00;;;22.90;83.90;;;;;;4620392;30;20608;-84
2022/06/23 21:33:46;;;;;;;9.90;9.20;;;22.80;85.00;;;;;;4660792;30;20085;-84
2022/06/23 21:36:35;;;;;;;9.68;9.07;;;22.60;84.20;;;;;;4664463;30;20058;-83
2022/06/23 21:39:19;;;;;;;9.65;8.85;;;22.50;84.10;;;;;;4661675;30;20051;-84
2022/06/23 21:42:00;;;;;;;10.93;10.18;;;22.40;84.70;;;;;;4664587;30;20450;-84
2022/06/23 21:44:37;;;;;;;12.20;11.07;;;22.30;87.80;;;;;;4663485;30;20113;-84
2022/06/23 21:47:13;;;;;;;10.85;10.02;;;22.20;90.50;;;;;;4656029;30;20042;-84
2022/06/23 21:49:56;;;;;;;11.55;10.65;;;22.10;90.10;;;;;;4662182;30;20057;-84
2022/06/23 21:52:32;;;;;;;11.32;10.43;;;22.10;90.40;;;;;;4664326;30;20057;-83
2022/06/23 21:55:39;;;;;;;11.68;10.73;;;22.10;90.80;;;;;;4664086;30;20101;-83
2022/06/23 21:58:34;;;;;;;10.52;9.82;;;22.10;91.30;;;;;;4646123;30;20053;-84
2022/06/23 22:01:11;;;;;;;13.82;12.73;;;22.10;92.00;;;;;;4656158;30;20054;-83
2022/06/23 22:04:05;;;;;;;13.40;12.40;;;22.00;92.50;;;;;;4663911;30;20069;-84
2022/06/23 22:06:37;;;;;;;12.68;11.60;;;21.90;93.80;;;;;;4640590;30;20058;-83
2022/06/23 22:09:18;;;;;;;15.00;13.63;;;21.80;94.70;;;;;;4662998;30;20038;-84
2022/06/23 22:11:45;;;;;;;13.30;12.00;;;21.80;95.70;;;;;;4655340;30;20069;-84
2022/06/23 22:14:28;;;;;;;14.00;12.77;;;21.70;96.70;;;;;;4662471;30;20092;-84
2022/06/23 22:16:59;;;;;;;13.68;12.57;;;21.60;97.70;;;;;;4656172;30;20051;-84
2022/06/23 22:19:59;;;;;;;14.57;13.07;;;21.60;98.60;;;;;;4662982;30;20047;-84
2022/06/23 22:23:03;;;;;;;14.32;12.88;;;21.50;99.60;;;;;;4664083;30;20085;-84
2022/06/23 22:28:28;;;;;;;12.90;11.70;;;21.40;99.90;;;;;;4658516;30;20065;-84
2022/06/23 22:30:55;;;;;;;14.02;12.77;;;21.40;99.90;;;;;;4660922;30;20042;-84
2022/06/23 22:33:31;;;;;;;15.50;13.98;;;21.40;99.90;;;;;;4663741;30;20518;-84
2022/06/23 22:36:22;;;;;;;14.40;13.20;;;21.30;99.90;;;;;;4632613;30;20448;-84
2022/06/23 22:38:59;;;;;;;14.45;13.00;;;21.30;99.90;;;;;;4660547;30;20128;-84
2022/06/23 22:41:27;;;;;;;15.20;13.82;;;21.20;99.90;;;;;;4648705;30;20460;-84
2022/06/23 22:43:53;;;;;;;15.40;13.82;;;21.20;99.90;;;;;;4663660;30;20545;-85
2022/06/23 22:46:23;;;;;;;15.40;14.02;;;21.10;99.90;;;;;;4650810;30;20043;-84
2022/06/23 22:48:54;;;;;;;15.45;13.85;;;21.00;99.90;;;;;;4655335;30;20460;-84
2022/06/23 22:51:43;;;;;;;16.30;14.68;;;21.00;99.90;;;;;;4659390;30;20134;-84
2022/06/23 22:54:27;;;;;;;15.55;14.25;;;21.00;99.90;;;;;;4663128;30;20108;-84
2022/06/23 22:57:26;;;;;;;15.77;14.23;;;21.00;99.90;;;;;;4648566;30;20054;-84
2022/06/23 22:59:51;;;;;;;15.93;14.52;;;21.10;99.90;;;;;;4662839;30;20078;-83
2022/06/23 23:02:26;;;;;;;16.63;15.23;;;21.00;99.90;;;;;;4649487;30;20058;-84
2022/06/23 23:05:04;;;;;;;16.40;14.85;;;21.00;99.90;;;;;;4648570;30;20101;-84
2022/06/23 23:07:52;;;;;;;16.83;15.27;;;20.90;99.90;;;;;;4662374;30;20078;-85
2022/06/23 23:10:48;;;;;;;15.55;14.07;;;20.90;99.90;;;;;;4663066;30;20046;-84
2022/06/23 23:13:23;;;;;;;15.20;13.35;;;20.80;99.90;;;;;;4663323;30;20134;-84